Time;durP1;ratioP1;P1;durP2;ratioP2;P2;SDS_P1;SDS_P2;PMS_P1;PMS_P2;Temp;Humidity;BMP_temperature;BMP_pressure;BME280_temperature;BME280_humidity;BME280_pressure;Samples;Min_cycle;Max_cycle;Signal;HPM_P1;HPM_P2
2021/03/13 00:04:20;;;;;;;22.15;9.30;;;;;;;1.76;68.13;97939.84;258648;1109;23015;-75
2021/03/13 00:09:22;;;;;;;21.57;8.80;;;;;;;1.76;67.92;97945.91;258729;1108;23120;-75
2021/03/13 00:14:24;;;;;;;16.43;7.47;;;;;;;1.83;67.97;97954.45;258649;1109;23034;-75
2021/03/13 00:19:26;;;;;;;17.75;7.70;;;;;;;1.96;68.28;97944.49;258842;1107;23205;-75
2021/03/13 00:24:28;;;;;;;16.70;7.93;;;;;;;2.02;68.22;97932.94;258780;1108;23219;-75
2021/03/13 00:29:30;;;;;;;14.47;6.37;;;;;;;2.13;67.50;97939.09;258920;1108;23097;-76
2021/03/13 00:34:33;;;;;;;15.90;6.63;;;;;;;2.26;67.43;97938.64;258601;1109;23020;-75
2021/03/13 00:39:35;;;;;;;11.30;5.27;;;;;;;2.36;66.72;97932.62;258748;1108;26174;-75
2021/03/13 00:44:37;;;;;;;11.70;5.53;;;;;;;2.46;66.30;97926.60;258852;1108;23226;-75
2021/03/13 00:49:40;;;;;;;10.15;4.90;;;;;;;2.48;66.69;97920.02;258897;1109;23083;-75
2021/03/13 00:54:42;;;;;;;13.67;5.53;;;;;;;2.49;66.19;97923.44;259122;1109;23019;-75
2021/03/13 00:59:44;;;;;;;11.10;5.10;;;;;;;2.48;66.28;97917.38;258769;1107;23002;-74
2021/03/13 01:04:46;;;;;;;11.47;4.93;;;;;;;2.47;66.28;97918.41;259246;1109;23083;-75
2021/03/13 01:09:48;;;;;;;8.97;5.13;;;;;;;2.46;66.22;97922.09;258835;1109;23056;-75
2021/03/13 01:14:52;;;;;;;14.13;6.27;;;;;;;2.39;65.96;97910.97;258915;1109;23003;-74
2021/03/13 01:19:55;;;;;;;14.67;6.60;;;;;;;2.25;65.74;97905.33;259056;1109;23057;-75
2021/03/13 01:24:58;;;;;;;12.30;5.70;;;;;;;2.07;65.89;97895.99;258721;1107;23027;-75
2021/03/13 01:30:00;;;;;;;13.97;6.57;;;;;;;1.97;66.87;97898.55;258743;1109;23155;-75
2021/03/13 01:35:07;;;;;;;16.10;7.50;;;;;;;1.88;66.61;97885.80;258690;1108;23076;-75
2021/03/13 01:40:15;;;;;;;16.53;7.40;;;;;;;1.81;67.31;97885.23;259200;1109;27412;-76
2021/03/13 01:45:20;;;;;;;18.55;8.35;;;;;;;1.78;66.61;97879.67;258882;1109;23086;-75
2021/03/13 01:50:24;;;;;;;15.00;7.13;;;;;;;1.77;66.68;97884.14;258824;1107;26563;-74
2021/03/13 01:55:26;;;;;;;13.07;6.43;;;;;;;1.78;67.33;97875.17;258652;1109;23070;-75
2021/03/13 02:00:32;;;;;;;13.43;6.87;;;;;;;1.79;67.31;97871.50;258769;1109;26531;-75
2021/03/13 02:05:41;;;;;;;16.25;7.30;;;;;;;1.73;66.91;97840.80;258980;1109;23154;-75
2021/03/13 02:11:01;;;;;;;15.13;6.90;;;;;;;1.73;67.49;97840.02;258661;1109;23071;-75
2021/03/13 02:16:07;;;;;;;13.57;6.50;;;;;;;1.75;68.21;97843.19;258722;1109;23034;-75
2021/03/13 02:21:15;;;;;;;17.43;7.00;;;;;;;1.77;67.52;97833.97;259014;1107;23077;-75
2021/03/13 02:26:50;;;;;;;13.33;5.40;;;;;;;1.95;67.87;97840.69;258611;1109;23083;-75
2021/03/13 02:32:22;;;;;;;7.50;3.90;;;;;;;2.25;67.77;97841.12;259094;1107;23202;-74
2021/03/13 02:37:29;;;;;;;7.33;4.37;;;;;;;2.48;67.43;97835.41;258744;1108;23030;-75
2021/03/13 02:42:40;;;;;;;6.43;3.67;;;;;;;2.65;66.90;97821.20;259020;1108;23072;-74
2021/03/13 02:47:44;;;;;;;9.57;4.33;;;;;;;2.76;66.54;97814.07;258890;1108;23222;-74
2021/03/13 02:52:50;;;;;;;5.90;3.50;;;;;;;2.77;66.31;97815.67;258710;1109;23091;-74
2021/03/13 02:57:56;;;;;;;5.97;3.70;;;;;;;2.79;66.96;97802.99;258736;1109;25504;-74
2021/03/13 03:03:00;;;;;;;8.17;3.87;;;;;;;2.79;66.78;97808.28;258764;1109;23203;-74
2021/03/13 03:08:15;;;;;;;6.70;3.60;;;;;;;2.80;66.22;97796.63;258777;1108;23071;-75
2021/03/13 03:13:18;;;;;;;6.93;3.57;;;;;;;2.77;66.50;97784.75;259075;1109;23030;-74
2021/03/13 03:18:25;;;;;;;7.90;3.20;;;;;;;2.74;66.46;97787.89;258790;1109;23087;-75
2021/03/13 03:23:29;;;;;;;11.07;3.07;;;;;;;2.72;66.78;97766.21;258792;1109;23226;-76
2021/03/13 03:28:32;;;;;;;6.77;3.43;;;;;;;2.76;66.58;97756.70;258802;1109;23031;-75
2021/03/13 03:33:42;;;;;;;5.77;2.83;;;;;;;2.78;65.87;97765.16;258576;1109;23091;-75
2021/03/13 03:38:45;;;;;;;4.77;2.60;;;;;;;2.81;66.49;97758.55;258915;1109;23033;-74
2021/03/13 03:44:00;;;;;;;5.10;2.83;;;;;;;2.87;66.49;97753.01;259032;1109;23290;-75
2021/03/13 03:49:07;;;;;;;5.37;2.77;;;;;;;3.00;65.70;97748.27;258763;1107;23087;-75
2021/03/13 03:54:15;;;;;;;3.83;2.17;;;;;;;3.15;65.15;97742.16;258827;1107;23213;-74
2021/03/13 03:59:19;;;;;;;3.70;2.20;;;;;;;3.27;65.32;97742.69;258793;1109;27883;-76
2021/03/13 04:04:23;;;;;;;5.65;2.20;;;;;;;3.39;63.96;97755.67;258755;1109;25302;-75
2021/03/13 04:09:27;;;;;;;7.40;2.73;;;;;;;3.44;64.24;97753.00;259116;1108;23232;-75
2021/03/13 04:14:32;;;;;;;6.03;2.20;;;;;;;3.47;63.57;97751.68;258956;1108;23809;-75
2021/03/13 04:19:35;;;;;;;6.17;2.40;;;;;;;3.51;63.15;97737.66;259211;1108;23011;-74
2021/03/13 04:24:39;;;;;;;4.53;2.10;;;;;;;3.55;63.34;97730.77;259099;1109;23454;-76
2021/03/13 04:29:41;;;;;;;5.63;2.90;;;;;;;3.61;62.89;97728.91;258845;1108;23171;-75
2021/03/13 04:34:45;;;;;;;5.77;2.33;;;;;;;3.63;62.57;97733.92;258748;1109;23023;-75
2021/03/13 04:39:50;;;;;;;6.27;2.87;;;;;;;3.68;62.92;97720.66;258974;1108;23452;-76
2021/03/13 04:44:53;;;;;;;6.70;2.90;;;;;;;3.67;63.06;97722.52;258694;1109;26482;-75
2021/03/13 04:49:55;;;;;;;8.03;2.80;;;;;;;3.66;63.27;97743.98;258888;1109;23026;-75
2021/03/13 04:54:57;;;;;;;6.17;2.60;;;;;;;3.70;63.12;97743.17;258884;1109;23027;-75
2021/03/13 04:59:59;;;;;;;6.47;2.30;;;;;;;3.77;62.90;97733.08;259072;1108;23449;-75
2021/03/13 05:05:02;;;;;;;4.60;2.30;;;;;;;3.88;62.97;97725.13;258965;1108;23037;-75
2021/03/13 05:10:08;;;;;;;5.43;2.60;;;;;;;4.01;62.52;97729.83;259091;1108;23071;-75
2021/03/13 05:15:15;;;;;;;4.40;2.10;;;;;;;4.14;62.04;97748.88;258958;1107;23087;-75
2021/03/13 05:20:20;;;;;;;5.47;2.30;;;;;;;4.24;61.68;97740.87;258802;1109;23141;-75
2021/03/13 05:25:22;;;;;;;5.67;2.20;;;;;;;4.32;62.17;97747.47;259038;1109;23037;-75
2021/03/13 05:30:25;;;;;;;4.80;2.10;;;;;;;4.35;62.35;97754.88;258703;1109;23030;-75
2021/03/13 05:35:27;;;;;;;5.20;2.50;;;;;;;4.40;62.50;97752.99;258833;1109;23037;-75
2021/03/13 05:40:30;;;;;;;4.57;1.90;;;;;;;4.52;62.31;97746.57;259072;1109;23028;-74
2021/03/13 05:45:32;;;;;;;4.20;2.15;;;;;;;4.63;61.82;97746.25;258682;1109;23091;-75
2021/03/13 05:50:36;;;;;;;4.87;1.80;;;;;;;4.76;61.96;97747.50;259103;1107;23242;-75
2021/03/13 05:55:39;;;;;;;4.20;2.00;;;;;;;4.88;61.84;97736.55;258977;1109;23026;-75
2021/03/13 06:00:41;;;;;;;4.27;2.23;;;;;;;4.94;61.92;97740.75;259091;1108;23028;-74
2021/03/13 06:05:47;;;;;;;4.67;2.30;;;;;;;4.99;61.39;97744.44;259090;1109;23001;-75
2021/03/13 06:10:49;;;;;;;4.40;2.07;;;;;;;5.04;61.28;97747.06;259053;1109;23087;-75
2021/03/13 06:15:53;;;;;;;5.70;2.20;;;;;;;5.04;61.33;97757.68;258667;1109;23223;-76
2021/03/13 06:20:56;;;;;;;5.67;2.20;;;;;;;5.03;60.71;97764.05;259062;1106;23021;-75
2021/03/13 06:25:58;;;;;;;5.13;2.70;;;;;;;5.03;61.35;97775.45;258799;1109;23248;-75
2021/03/13 06:31:05;;;;;;;4.97;2.23;;;;;;;5.05;61.14;97762.71;259009;1109;23000;-76
2021/03/13 06:36:08;;;;;;;4.47;2.40;;;;;;;5.07;60.80;97770.39;258859;1108;23074;-75
2021/03/13 06:41:24;;;;;;;5.67;2.97;;;;;;;5.10;60.97;97783.89;258955;1109;24622;-75
2021/03/13 06:46:30;;;;;;;5.53;2.53;;;;;;;5.16;61.21;97797.92;258740;1108;23083;-75
2021/03/13 06:51:37;;;;;;;6.27;2.77;;;;;;;5.20;60.70;97800.83;258730;1109;23083;-75
2021/03/13 06:56:42;;;;;;;6.20;2.90;;;;;;;5.23;60.99;97790.45;258963;1109;23033;-76
2021/03/13 07:01:45;;;;;;;5.20;2.70;;;;;;;5.29;61.05;97802.61;258880;1109;22979;-75
2021/03/13 07:06:47;;;;;;;6.87;3.30;;;;;;;5.37;60.62;97792.46;258879;1109;23103;-75
2021/03/13 07:11:49;;;;;;;7.65;3.65;;;;;;;5.41;60.69;97798.80;258765;1109;23023;-75
2021/03/13 07:16:52;;;;;;;5.77;3.53;;;;;;;5.45;60.17;97807.80;258831;1109;23439;-76
2021/03/13 07:21:55;;;;;;;6.17;3.43;;;;;;;5.45;60.91;97821.09;258736;1109;24584;-75
2021/03/13 07:26:59;;;;;;;7.03;3.60;;;;;;;5.44;60.20;97822.96;259035;1108;27409;-75
2021/03/13 07:32:05;;;;;;;5.90;3.30;;;;;;;5.48;60.94;97813.37;258913;1109;23032;-75
2021/03/13 07:37:15;;;;;;;7.00;3.33;;;;;;;5.57;60.94;97818.05;258837;1109;23076;-75
2021/03/13 07:42:19;;;;;;;8.53;3.20;;;;;;;5.63;60.77;97830.24;258673;1109;26443;-74
2021/03/13 07:47:23;;;;;;;6.63;3.10;;;;;;;5.73;59.58;97835.46;260022;1109;27418;-75
2021/03/13 07:52:26;;;;;;;4.50;2.35;;;;;;;5.89;60.04;97852.08;259297;1109;23030;-76
2021/03/13 07:57:29;;;;;;;6.40;2.87;;;;;;;6.11;60.19;97858.81;259294;1108;22994;-74
2021/03/13 08:02:32;;;;;;;6.80;2.50;;;;;;;6.36;59.04;97855.09;259150;1108;26441;-75
2021/03/13 08:07:57;;;;;;;8.23;2.90;;;;;;;6.60;59.03;97859.61;259602;1109;26408;-76
2021/03/13 08:12:59;;;;;;;5.17;2.20;;;;;;;6.87;57.93;97850.23;259600;1107;23098;-75
2021/03/13 08:18:01;;;;;;;6.93;2.43;;;;;;;7.06;56.48;97845.70;259493;1107;23225;-77
2021/03/13 08:23:17;;;;;;;6.73;2.50;;;;;;;7.16;56.85;97860.75;258989;1109;22993;-76
2021/03/13 08:28:47;;;;;;;6.20;2.83;;;;;;;7.29;56.92;97851.24;259073;1109;23019;-74
2021/03/13 08:33:57;;;;;;;5.83;2.50;;;;;;;7.32;55.59;97838.15;259076;1107;23497;-73
2021/03/13 08:39:01;;;;;;;4.97;2.30;;;;;;;7.38;55.52;97838.08;259053;1108;23059;-74
2021/03/13 08:44:03;;;;;;;5.50;2.73;;;;;;;7.45;55.41;97847.27;259130;1109;23024;-74
2021/03/13 08:49:05;;;;;;;5.20;2.60;;;;;;;7.57;55.54;97836.18;259023;1108;23023;-74
2021/03/13 08:54:08;;;;;;;2.90;1.67;;;;;;;7.74;54.92;97842.82;259370;1108;23030;-74
2021/03/13 08:59:16;;;;;;;6.67;2.53;;;;;;;7.81;55.01;97843.27;259129;1109;23468;-74
2021/03/13 09:04:22;;;;;;;5.90;1.93;;;;;;;7.94;53.84;97855.81;259224;1108;28609;-74
2021/03/13 09:09:32;;;;;;;3.60;1.75;;;;;;;8.02;55.10;97844.48;259040;1108;23459;-75
2021/03/13 09:14:36;;;;;;;2.73;1.60;;;;;;;8.19;55.29;97845.79;259191;1109;23083;-74
2021/03/13 09:19:38;;;;;;;2.93;1.30;;;;;;;8.29;53.70;97842.14;259552;1109;23495;-74
2021/03/13 09:24:42;;;;;;;1.87;1.10;;;;;;;8.31;52.54;97832.76;259424;1108;23023;-74
2021/03/13 09:29:44;;;;;;;2.70;1.10;;;;;;;8.14;52.84;97822.67;259193;1109;23258;-74
2021/03/13 09:34:48;;;;;;;2.37;1.30;;;;;;;8.08;54.20;97823.05;259531;1109;23074;-74
2021/03/13 09:39:53;;;;;;;3.40;2.00;;;;;;;8.36;55.42;97807.84;259379;1109;26444;-75
2021/03/13 09:45:03;;;;;;;4.43;1.97;;;;;;;8.74;53.67;97791.61;259605;1107;23202;-77
2021/03/13 09:50:09;;;;;;;3.57;2.00;;;;;;;8.85;52.32;97802.87;259578;1109;23083;-75
2021/03/13 09:55:12;;;;;;;2.77;1.47;;;;;;;8.70;53.18;97791.44;259413;1109;23023;-76
2021/03/13 10:00:21;;;;;;;3.07;1.67;;;;;;;8.65;52.90;97788.86;259002;1108;23030;-75
2021/03/13 10:05:26;;;;;;;3.13;1.57;;;;;;;8.69;52.89;97781.84;259250;1109;23164;-76
2021/03/13 10:10:29;;;;;;;4.35;2.00;;;;;;;8.80;51.44;97771.73;260962;1107;26054;-77
2021/03/13 10:15:41;;;;;;;3.40;2.50;;;;;;;8.90;51.87;97765.38;259092;1108;23270;-78
2021/03/13 10:20:50;;;;;;;5.23;3.07;;;;;;;8.95;52.35;97762.56;259663;1109;23023;-77
2021/03/13 10:26:13;;;;;;;5.63;2.60;;;;;;;9.08;52.01;97776.98;259267;1107;23234;-78
2021/03/13 10:31:20;;;;;;;7.07;3.27;;;;;;;9.19;51.62;97758.81;259133;1108;23854;-77
2021/03/13 10:36:45;;;;;;;7.57;3.10;;;;;;;9.36;51.55;97747.45;259268;1108;23214;-79
2021/03/13 10:41:56;;;;;;;4.50;2.80;;;;;;;9.45;51.15;97758.22;259215;1109;23064;-78
2021/03/13 10:46:59;;;;;;;4.10;2.57;;;;;;;9.45;50.31;97747.52;259617;1107;23083;-79
2021/03/13 10:52:02;;;;;;;5.97;2.97;;;;;;;9.45;50.95;97742.95;259197;1108;23199;-78
2021/03/13 10:57:07;;;;;;;6.40;3.30;;;;;;;9.53;50.61;97731.52;259132;1109;23060;-77
2021/03/13 11:02:10;;;;;;;6.83;2.67;;;;;;;9.59;49.61;97729.50;259080;1109;26408;-77
2021/03/13 11:07:14;;;;;;;4.10;2.63;;;;;;;9.58;50.11;97709.20;259291;1108;24000;-76
2021/03/13 11:12:16;;;;;;;4.77;2.30;;;;;;;9.55;50.34;97699.13;259269;1108;23090;-76
2021/03/13 11:17:18;;;;;;;5.67;3.10;;;;;;;9.56;49.78;97692.70;259321;1108;23036;-78
2021/03/13 11:22:20;;;;;;;5.95;2.90;;;;;;;9.58;50.78;97688.62;259091;1109;23254;-75
2021/03/13 11:27:22;;;;;;;4.40;2.27;;;;;;;9.75;50.90;97687.90;259488;1108;23171;-76
2021/03/13 11:32:24;;;;;;;6.63;3.20;;;;;;;9.88;50.21;97670.16;259322;1109;26054;-74
2021/03/13 11:37:26;;;;;;;5.13;2.60;;;;;;;9.96;49.89;97657.91;259422;1108;26457;-75
2021/03/13 11:42:29;;;;;;;5.97;3.23;;;;;;;10.05;49.69;97658.70;259008;1109;23029;-75
2021/03/13 11:47:31;;;;;;;6.50;2.90;;;;;;;10.07;48.48;97640.47;259330;1107;23099;-75
2021/03/13 11:52:35;;;;;;;8.03;2.83;;;;;;;10.05;49.61;97636.52;259254;1108;23027;-73
2021/03/13 11:57:38;;;;;;;5.50;2.80;;;;;;;10.07;49.32;97628.95;259583;1109;23024;-76
2021/03/13 12:02:40;;;;;;;4.90;2.70;;;;;;;10.04;50.04;97630.36;259378;1109;23505;-77
2021/03/13 12:07:44;;;;;;;7.87;2.70;;;;;;;10.02;48.82;97626.45;258796;1109;23192;-76
2021/03/13 12:12:49;;;;;;;4.50;2.85;;;;;;;9.92;49.87;97611.48;258631;1108;23259;-77
2021/03/13 12:17:51;;;;;;;5.33;2.70;;;;;;;9.87;49.88;97606.27;258698;1109;23205;-77
2021/03/13 12:22:54;;;;;;;4.00;2.50;;;;;;;9.81;49.68;97586.11;259025;1108;23078;-76
2021/03/13 12:27:56;;;;;;;4.63;2.40;;;;;;;9.79;50.05;97588.31;258987;1108;23408;-75
2021/03/13 12:32:58;;;;;;;6.53;1.90;;;;;;;9.71;49.66;97574.63;258903;1109;23011;-76
2021/03/13 12:38:01;;;;;;;6.17;2.53;;;;;;;9.68;50.33;97561.08;259053;1109;23155;-76
2021/03/13 12:43:21;;;;;;;5.83;2.23;;;;;;;9.67;50.14;97568.32;258971;1109;23002;-75
2021/03/13 12:48:24;;;;;;;4.85;2.70;;;;;;;9.69;49.79;97571.45;259057;1109;23605;-76
2021/03/13 12:53:26;;;;;;;3.53;2.20;;;;;;;9.68;49.39;97556.53;258970;1107;26507;-76
2021/03/13 12:58:28;;;;;;;5.53;1.80;;;;;;;9.72;49.43;97546.79;258699;1109;23070;-75
2021/03/13 13:03:30;;;;;;;5.33;2.20;;;;;;;9.78;49.64;97547.42;259149;1108;23030;-76
2021/03/13 13:08:32;;;;;;;5.30;2.45;;;;;;;9.82;49.55;97547.57;258872;1109;23083;-75
2021/03/13 13:13:34;;;;;;;5.30;2.30;;;;;;;9.86;49.88;97537.82;258677;1109;23202;-76
2021/03/13 13:18:37;;;;;;;4.13;2.30;;;;;;;9.87;48.17;97544.75;258678;1109;23089;-76
2021/03/13 13:23:41;;;;;;;4.00;2.03;;;;;;;9.89;49.13;97523.81;259164;1109;26447;-76
2021/03/13 13:28:44;;;;;;;3.77;1.90;;;;;;;9.91;49.37;97510.92;258781;1107;23018;-76
2021/03/13 13:33:47;;;;;;;4.05;2.20;;;;;;;9.91;49.54;97501.00;258700;1108;23070;-77
2021/03/13 13:38:49;;;;;;;5.07;2.10;;;;;;;9.96;49.08;97497.41;258742;1108;23030;-76
2021/03/13 13:43:51;;;;;;;4.17;2.30;;;;;;;9.98;49.25;97499.76;258931;1108;23034;-75
2021/03/13 13:48:53;;;;;;;4.95;2.50;;;;;;;10.00;49.17;97495.64;258697;1109;23272;-75
2021/03/13 13:53:55;;;;;;;4.60;2.55;;;;;;;10.05;49.11;97474.09;258971;1109;23151;-75
2021/03/13 13:58:58;;;;;;;4.60;2.50;;;;;;;10.15;48.60;97478.33;258685;1108;22999;-76
2021/03/13 14:04:01;;;;;;;4.27;2.17;;;;;;;10.27;48.12;97470.44;258970;1109;23372;-76
2021/03/13 14:09:05;;;;;;;4.93;2.40;;;;;;;10.39;47.58;97464.45;258789;1108;27345;-77
2021/03/13 14:14:07;;;;;;;4.63;2.20;;;;;;;10.56;47.01;97444.89;259078;1109;23508;-75
2021/03/13 14:19:09;;;;;;;3.37;2.07;;;;;;;10.83;46.97;97431.38;258690;1109;22970;-76
2021/03/13 14:24:12;;;;;;;2.70;1.90;;;;;;;11.10;45.87;97436.28;259056;1109;23017;-77
2021/03/13 14:29:16;;;;;;;6.65;2.50;;;;;;;11.26;45.94;97424.99;258769;1109;23361;-75
2021/03/13 14:34:20;;;;;;;4.10;2.40;;;;;;;11.35;46.01;97412.33;258835;1109;22967;-76
2021/03/13 14:39:22;;;;;;;4.50;2.70;;;;;;;11.39;45.29;97407.11;259198;1108;26070;-76
2021/03/13 14:44:26;;;;;;;7.13;3.50;;;;;;;11.34;44.89;97413.42;259014;1109;23078;-75
2021/03/13 14:49:27;;;;;;;5.50;2.90;;;;;;;11.24;43.92;97406.55;258728;1109;23881;-76
2021/03/13 14:54:30;;;;;;;5.30;2.77;;;;;;;11.15;43.71;97405.05;259027;1109;23091;-76
2021/03/13 14:59:33;;;;;;;5.45;2.80;;;;;;;11.07;42.58;97382.56;258686;1109;23448;-77
2021/03/13 15:04:35;;;;;;;5.80;2.83;;;;;;;11.05;43.04;97372.17;259006;1108;23010;-76
2021/03/13 15:09:50;;;;;;;5.00;2.40;;;;;;;11.02;43.10;97335.28;258757;1109;23074;-76
2021/03/13 15:14:52;;;;;;;4.77;2.53;;;;;;;11.05;43.09;97334.66;258656;1109;23084;-75
2021/03/13 15:19:54;;;;;;;3.90;2.00;;;;;;;11.09;40.52;97329.41;258930;1109;23070;-76
2021/03/13 15:24:57;;;;;;;4.57;2.57;;;;;;;11.10;41.59;97296.15;259116;1109;23225;-75
2021/03/13 15:29:59;;;;;;;5.53;2.50;;;;;;;11.08;41.13;97290.32;259047;1107;26453;-76
2021/03/13 15:35:01;;;;;;;5.40;2.60;;;;;;;11.02;40.23;97278.23;258742;1109;23019;-77
2021/03/13 15:40:06;;;;;;;6.10;3.20;;;;;;;10.93;42.58;97275.64;259087;1109;23642;-76
2021/03/13 15:45:10;;;;;;;4.67;2.70;;;;;;;10.81;43.20;97280.92;259201;1109;23079;-75
2021/03/13 15:50:16;;;;;;;5.40;2.60;;;;;;;10.70;43.13;97281.31;259002;1109;23023;-76
2021/03/13 15:55:18;;;;;;;5.30;3.00;;;;;;;10.65;43.91;97270.78;258841;1108;23022;-75
2021/03/13 16:00:21;;;;;;;5.60;2.45;;;;;;;10.59;44.66;97266.72;258889;1108;23097;-75
2021/03/13 16:05:45;;;;;;;5.33;2.37;;;;;;;10.48;44.83;97279.72;258749;1107;24653;-76
2021/03/13 16:10:47;;;;;;;3.35;2.40;;;;;;;10.40;45.03;97267.16;258776;1109;23718;-76
2021/03/13 16:15:52;;;;;;;5.97;2.77;;;;;;;10.37;45.45;97278.52;258867;1107;23027;-76
2021/03/13 16:20:59;;;;;;;6.50;2.73;;;;;;;10.32;45.65;97274.08;259158;1109;23222;-76
2021/03/13 16:26:02;;;;;;;4.00;2.50;;;;;;;10.27;45.52;97266.26;259014;1107;23037;-77
2021/03/13 16:31:05;;;;;;;4.93;3.00;;;;;;;10.22;44.83;97272.56;258702;1109;23024;-76
2021/03/13 16:36:09;;;;;;;6.27;3.27;;;;;;;10.17;45.40;97272.77;258773;1108;23468;-76
2021/03/13 16:41:13;;;;;;;5.40;3.30;;;;;;;10.10;45.24;97280.48;259100;1109;23071;-75
2021/03/13 16:46:39;;;;;;;5.90;3.20;;;;;;;10.01;45.71;97259.13;258909;1108;23212;-76
2021/03/13 16:51:44;;;;;;;6.60;2.80;;;;;;;9.90;46.15;97265.94;259118;1109;23087;-76
2021/03/13 16:56:46;;;;;;;9.70;4.07;;;;;;;9.80;46.78;97259.05;258709;1109;23030;-76
2021/03/13 17:01:48;;;;;;;10.83;4.03;;;;;;;9.69;47.43;97258.59;258719;1108;23077;-76
2021/03/13 17:06:51;;;;;;;6.80;3.73;;;;;;;9.62;48.06;97260.98;258704;1109;23087;-76
2021/03/13 17:11:53;;;;;;;7.53;3.90;;;;;;;9.58;48.34;97270.74;258791;1109;23066;-76
2021/03/13 17:16:57;;;;;;;8.80;4.55;;;;;;;9.59;48.72;97275.77;258784;1108;23067;-76
2021/03/13 17:22:10;;;;;;;8.40;4.50;;;;;;;9.59;49.20;97266.97;258701;1109;23129;-76
2021/03/13 17:27:12;;;;;;;13.20;5.97;;;;;;;9.56;49.54;97271.06;258742;1109;27348;-76
2021/03/13 17:32:15;;;;;;;10.93;6.07;;;;;;;9.54;49.84;97264.46;259032;1108;23030;-76
2021/03/13 17:37:18;;;;;;;11.95;5.30;;;;;;;9.53;50.21;97263.69;259006;1108;23039;-75
2021/03/13 17:42:24;;;;;;;9.20;5.53;;;;;;;9.55;50.47;97277.51;259022;1109;23024;-76
2021/03/13 17:47:26;;;;;;;10.17;5.70;;;;;;;9.50;50.73;97275.02;258676;1109;23014;-75
2021/03/13 17:52:29;;;;;;;9.87;5.10;;;;;;;9.44;50.74;97276.27;259143;1109;23202;-76
2021/03/13 17:57:31;;;;;;;9.70;5.10;;;;;;;9.40;51.53;97270.80;258781;1109;23085;-76
2021/03/13 18:02:34;;;;;;;10.30;5.90;;;;;;;9.39;51.58;97277.23;259120;1109;26754;-75
2021/03/13 18:07:36;;;;;;;10.90;5.70;;;;;;;9.33;51.87;97280.37;258937;1107;23229;-76
2021/03/13 18:12:39;;;;;;;11.80;6.27;;;;;;;9.25;52.60;97284.64;259178;1109;23193;-75
2021/03/13 18:17:43;;;;;;;11.57;6.37;;;;;;;9.17;53.05;97272.08;258835;1109;23032;-75
2021/03/13 18:22:45;;;;;;;10.53;5.80;;;;;;;9.11;53.33;97286.67;258904;1109;23023;-76
2021/03/13 18:27:49;;;;;;;11.83;5.93;;;;;;;9.09;54.24;97292.34;258869;1108;23083;-76
2021/03/13 18:32:52;;;;;;;10.30;4.17;;;;;;;9.23;56.64;97301.00;259116;1109;23074;-76
2021/03/13 18:37:55;;;;;;;6.50;3.80;;;;;;;9.27;56.25;97306.48;258906;1109;23295;-75
2021/03/13 18:42:59;;;;;;;7.80;4.17;;;;;;;9.22;57.12;97317.34;258978;1107;23102;-75
2021/03/13 18:48:09;;;;;;;8.87;5.00;;;;;;;9.17;57.41;97325.51;258824;1109;26446;-76
2021/03/13 18:53:15;;;;;;;6.80;4.15;;;;;;;9.14;58.62;97344.84;258831;1109;26208;-75
2021/03/13 18:58:19;;;;;;;7.63;4.13;;;;;;;9.09;59.90;97340.42;258943;1109;23061;-76
2021/03/13 19:03:21;;;;;;;7.53;4.23;;;;;;;8.99;59.61;97340.73;258904;1109;23018;-75
2021/03/13 19:08:23;;;;;;;7.60;4.43;;;;;;;8.89;59.99;97334.59;258754;1108;23027;-76
2021/03/13 19:13:25;;;;;;;6.63;3.97;;;;;;;8.84;60.47;97337.42;258754;1109;23080;-75
2021/03/13 19:18:27;;;;;;;5.57;3.70;;;;;;;8.79;59.91;97334.12;259126;1109;23228;-75
2021/03/13 19:23:30;;;;;;;5.70;3.00;;;;;;;8.75;59.60;97322.48;258736;1109;22987;-76
2021/03/13 19:28:44;;;;;;;5.83;3.40;;;;;;;8.76;59.88;97329.38;258700;1109;23030;-76
2021/03/13 19:33:47;;;;;;;6.97;4.20;;;;;;;8.75;59.63;97317.92;258763;1109;23445;-75
2021/03/13 19:38:51;;;;;;;6.37;3.20;;;;;;;8.72;60.18;97316.66;259157;1109;22987;-76
2021/03/13 19:43:53;;;;;;;5.73;3.73;;;;;;;8.74;60.28;97311.00;259039;1108;23155;-75
2021/03/13 19:48:55;;;;;;;7.60;3.90;;;;;;;8.71;60.45;97309.73;258783;1109;23030;-76
2021/03/13 19:53:58;;;;;;;5.75;3.25;;;;;;;8.69;60.37;97292.48;258678;1109;23083;-76
2021/03/13 19:59:01;;;;;;;6.45;3.60;;;;;;;8.65;60.60;97289.64;258733;1109;23292;-76
2021/03/13 20:04:05;;;;;;;7.60;3.63;;;;;;;8.63;61.70;97296.38;258818;1109;22966;-76
2021/03/13 20:09:07;;;;;;;7.83;5.00;;;;;;;8.63;62.06;97293.71;258768;1109;23033;-76
2021/03/13 20:14:10;;;;;;;9.77;4.87;;;;;;;8.62;62.13;97316.96;258722;1109;23151;-76
2021/03/13 20:19:12;;;;;;;7.27;4.23;;;;;;;8.61;61.92;97309.27;258940;1109;23076;-76
2021/03/13 20:24:15;;;;;;;33.07;19.50;;;;;;;8.60;62.62;97300.45;258849;1109;23049;-76
2021/03/13 20:29:17;;;;;;;11.70;5.67;;;;;;;8.56;62.34;97302.17;258726;1108;23075;-75
2021/03/13 20:34:20;;;;;;;10.65;5.10;;;;;;;8.52;62.83;97314.56;258706;1107;23034;-76
2021/03/13 20:39:22;;;;;;;10.00;6.03;;;;;;;8.53;62.51;97324.15;258656;1109;26163;-75
2021/03/13 20:44:26;;;;;;;11.40;6.00;;;;;;;8.55;62.69;97329.98;258746;1109;23459;-76
2021/03/13 20:49:27;;;;;;;10.83;5.37;;;;;;;8.57;62.95;97327.77;259084;1109;23024;-75
2021/03/13 20:54:30;;;;;;;11.05;5.75;;;;;;;8.59;63.16;97325.59;258782;1109;23024;-76
2021/03/13 20:59:32;;;;;;;12.10;5.80;;;;;;;8.58;62.55;97321.34;259048;1108;23155;-78
2021/03/13 21:04:34;;;;;;;9.60;5.67;;;;;;;8.57;62.63;97311.76;258993;1108;23030;-76
2021/03/13 21:09:36;;;;;;;8.67;4.77;;;;;;;8.56;63.14;97304.84;258729;1109;27180;-75
2021/03/13 21:14:40;;;;;;;8.85;4.60;;;;;;;8.60;63.05;97297.78;259004;1107;23223;-75
2021/03/13 21:19:43;;;;;;;8.03;4.70;;;;;;;8.60;63.21;97299.67;259192;1108;23086;-76
2021/03/13 21:24:45;;;;;;;10.00;4.90;;;;;;;8.60;63.09;97291.67;259087;1109;23097;-75
2021/03/13 21:29:47;;;;;;;10.07;4.80;;;;;;;8.60;63.33;97294.34;259050;1107;26073;-76
2021/03/13 21:34:50;;;;;;;9.10;4.87;;;;;;;8.63;63.52;97277.70;258839;1108;23020;-76
2021/03/13 21:39:53;;;;;;;9.30;4.17;;;;;;;8.62;63.29;97279.59;259030;1109;27285;-76
2021/03/13 21:44:56;;;;;;;9.03;5.00;;;;;;;8.67;63.44;97294.66;258785;1109;23075;-76
2021/03/13 21:49:59;;;;;;;6.07;3.93;;;;;;;8.64;64.45;97281.95;259146;1108;23074;-76
2021/03/13 21:55:03;;;;;;;6.70;4.07;;;;;;;8.52;65.67;97312.70;258884;1109;23354;-75
2021/03/13 22:00:08;;;;;;;5.07;3.53;;;;;;;8.40;67.23;97326.59;258878;1108;23229;-76
2021/03/13 22:05:11;;;;;;;5.93;3.13;;;;;;;8.14;68.71;97299.03;258939;1108;23029;-76
2021/03/13 22:10:17;;;;;;;4.07;2.47;;;;;;;7.91;70.17;97277.77;258824;1109;23445;-78
2021/03/13 22:15:21;;;;;;;5.17;2.63;;;;;;;7.73;68.96;97294.78;259033;1109;23019;-76
2021/03/13 22:20:23;;;;;;;4.80;3.20;;;;;;;7.67;69.39;97300.23;259114;1108;23075;-76
2021/03/13 22:25:25;;;;;;;5.73;3.10;;;;;;;7.67;70.01;97302.13;259095;1108;23073;-76
2021/03/13 22:30:27;;;;;;;4.10;2.67;;;;;;;7.63;70.30;97299.27;258830;1108;23093;-76
2021/03/13 22:35:30;;;;;;;5.53;3.20;;;;;;;7.65;69.28;97280.30;259162;1108;23093;-76
2021/03/13 22:40:32;;;;;;;4.03;2.77;;;;;;;7.62;70.61;97275.59;259016;1108;23228;-77
2021/03/13 22:45:37;;;;;;;3.53;2.53;;;;;;;7.57;70.70;97297.03;258764;1109;23031;-77
2021/03/13 22:50:40;;;;;;;5.93;3.20;;;;;;;7.57;69.91;97310.35;258840;1109;26716;-76
2021/03/13 22:55:43;;;;;;;3.80;2.60;;;;;;;7.55;70.16;97284.02;259001;1108;23018;-76
2021/03/13 23:00:49;;;;;;;6.03;3.40;;;;;;;7.44;70.87;97280.80;259261;1109;23205;-75
2021/03/13 23:05:53;;;;;;;4.60;3.07;;;;;;;7.31;71.31;97293.11;258891;1108;26166;-75
2021/03/13 23:10:57;;;;;;;4.03;2.77;;;;;;;7.23;71.44;97285.06;259148;1108;23012;-76
2021/03/13 23:16:02;;;;;;;4.33;2.63;;;;;;;7.12;72.01;97284.50;258850;1109;23013;-76
2021/03/13 23:21:05;;;;;;;3.73;2.30;;;;;;;7.06;72.48;97280.40;258877;1109;23023;-76
2021/03/13 23:26:07;;;;;;;4.80;2.90;;;;;;;6.97;71.20;97273.13;258838;1109;23279;-76
2021/03/13 23:31:10;;;;;;;4.37;3.17;;;;;;;6.89;71.68;97252.55;258948;1109;23083;-75
2021/03/13 23:36:12;;;;;;;6.95;3.60;;;;;;;6.79;71.62;97276.73;259115;1109;23026;-75
2021/03/13 23:41:15;;;;;;;6.00;2.70;;;;;;;6.72;71.41;97282.46;259133;1109;23126;-76
2021/03/13 23:46:18;;;;;;;5.63;2.60;;;;;;;6.64;71.21;97270.64;258673;1109;26418;-76
2021/03/13 23:51:20;;;;;;;5.10;2.70;;;;;;;6.63;70.68;97278.92;258793;1109;23020;-76